createdAt,value
2023-09-24T00:00:48.751Z,2.10
2023-09-24T00:03:54.081Z,2.20
2023-09-24T00:06:46.810Z,2.10
2023-09-24T00:09:39.154Z,1.90
2023-09-24T00:12:31.387Z,1.70
2023-09-24T00:15:23.594Z,1.70
2023-09-24T00:18:15.960Z,1.80
2023-09-24T00:21:08.444Z,1.80
2023-09-24T00:24:01.038Z,1.50
2023-09-24T00:26:54.190Z,1.60
2023-09-24T00:29:46.627Z,2.00
2023-09-24T00:32:39.116Z,1.90
2023-09-24T00:35:17.047Z,1.90
2023-09-24T00:38:09.964Z,1.50
2023-09-24T00:41:02.295Z,1.40
2023-09-24T00:43:54.576Z,1.50
2023-09-24T00:46:48.022Z,1.40
2023-09-24T00:49:44.917Z,1.60
2023-09-24T00:52:37.429Z,1.50
2023-09-24T00:55:32.075Z,1.50
2023-09-24T00:58:27.005Z,1.50
2023-09-24T01:01:12.387Z,1.40
2023-09-24T01:04:07.194Z,1.00
2023-09-24T01:07:00.788Z,1.80
2023-09-24T01:09:53.340Z,1.20
2023-09-24T01:13:02.104Z,1.20
2023-09-24T01:15:54.766Z,1.40
2023-09-24T01:18:47.230Z,1.30
2023-09-24T01:21:40.503Z,1.40
2023-09-24T01:24:32.790Z,1.20
2023-09-24T01:27:26.188Z,1.10
2023-09-24T01:30:19.001Z,1.50
2023-09-24T01:33:11.297Z,1.30
2023-09-24T01:36:03.575Z,1.30
2023-09-24T01:38:55.968Z,1.20
2023-09-24T01:41:48.389Z,1.20
2023-09-24T01:44:41.524Z,1.10
2023-09-24T01:47:34.733Z,1.20
2023-09-24T01:50:28.563Z,1.50
2023-09-24T01:53:24.238Z,1.40
2023-09-24T01:56:18.927Z,1.30
2023-09-24T01:59:11.106Z,1.30
2023-09-24T02:02:03.358Z,1.70
2023-09-24T02:04:56.880Z,1.60
2023-09-24T02:07:50.337Z,1.50
2023-09-24T02:10:43.919Z,2.40
2023-09-24T02:13:36.114Z,2.40
2023-09-24T02:16:28.848Z,2.10
2023-09-24T02:19:22.480Z,1.50
2023-09-24T02:22:14.707Z,1.70
2023-09-24T02:25:08.714Z,1.30
2023-09-24T02:28:01.694Z,1.60
2023-09-24T02:30:55.166Z,1.60
2023-09-24T02:33:47.687Z,1.80
2023-09-24T02:36:40.045Z,1.30
2023-09-24T02:39:32.357Z,1.40
2023-09-24T02:42:26.293Z,1.30
2023-09-24T02:45:08.259Z,1.40
2023-09-24T02:48:00.806Z,1.20
2023-09-24T02:50:53.266Z,1.40
2023-09-24T02:53:47.959Z,1.50
2023-09-24T02:56:40.421Z,1.50
2023-09-24T02:59:33.655Z,1.40
2023-09-24T03:02:27.366Z,1.20
2023-09-24T03:05:25.586Z,1.40
2023-09-24T03:08:18.910Z,1.60
2023-09-24T03:11:16.842Z,1.70
2023-09-24T03:14:10.149Z,2.30
2023-09-24T03:17:02.381Z,1.70
2023-09-24T03:19:54.627Z,1.60
2023-09-24T03:22:49.484Z,2.40
2023-09-24T03:25:41.889Z,3.10
2023-09-24T03:28:34.147Z,3.00
2023-09-24T03:31:26.489Z,2.40
2023-09-24T03:34:18.647Z,2.80
2023-09-24T03:37:10.851Z,3.50
2023-09-24T03:39:48.031Z,2.70
2023-09-24T03:42:40.811Z,2.30
2023-09-24T03:45:33.133Z,2.00
2023-09-24T03:48:26.053Z,2.60
2023-09-24T03:51:18.374Z,2.50
2023-09-24T03:54:10.680Z,4.80
2023-09-24T03:57:03.082Z,2.50
2023-09-24T03:59:55.525Z,1.90
2023-09-24T04:02:49.637Z,1.50
2023-09-24T04:05:43.397Z,1.80
2023-09-24T04:08:35.662Z,1.40
2023-09-24T04:11:29.001Z,1.50
2023-09-24T04:14:21.350Z,1.70
2023-09-24T04:17:13.835Z,1.50
2023-09-24T04:20:08.968Z,1.40
2023-09-24T04:23:01.319Z,1.50
2023-09-24T04:25:53.651Z,1.50
2023-09-24T04:28:47.767Z,1.80
2023-09-24T04:31:41.927Z,1.90
2023-09-24T04:34:34.190Z,2.60
2023-09-24T04:37:27.799Z,2.10
2023-09-24T04:40:20.717Z,2.90
2023-09-24T04:43:16.599Z,2.30
2023-09-24T04:46:08.937Z,1.40
2023-09-24T04:49:04.321Z,1.50
2023-09-24T04:51:56.631Z,1.40
2023-09-24T04:54:48.820Z,1.50
2023-09-24T04:57:41.120Z,1.80
2023-09-24T05:00:33.475Z,1.80
2023-09-24T05:03:26.033Z,1.90
2023-09-24T05:06:18.347Z,2.70
2023-09-24T05:09:10.894Z,2.50
2023-09-24T05:12:03.322Z,2.10
2023-09-24T05:14:55.665Z,2.40
2023-09-24T05:17:48.079Z,2.20
2023-09-24T05:20:40.434Z,2.40
2023-09-24T05:23:33.021Z,2.60
2023-09-24T05:26:25.250Z,2.20
2023-09-24T05:29:17.516Z,1.90
2023-09-24T05:32:09.693Z,2.00
2023-09-24T05:35:01.945Z,2.30
2023-09-24T05:37:54.147Z,1.90
2023-09-24T05:40:46.350Z,2.10
2023-09-24T05:43:49.828Z,2.50
2023-09-24T05:46:42.213Z,2.20
2023-09-24T05:49:34.435Z,2.00
2023-09-24T05:52:11.800Z,1.50
2023-09-24T05:55:04.127Z,1.70
2023-09-24T05:57:56.332Z,1.60
2023-09-24T06:00:48.828Z,2.50
2023-09-24T06:03:41.091Z,2.80
2023-09-24T06:06:33.444Z,2.30
2023-09-24T06:09:25.780Z,2.60
2023-09-24T06:12:18.839Z,2.20
2023-09-24T06:15:14.768Z,2.00
2023-09-24T06:18:07.587Z,1.90
2023-09-24T06:21:00.461Z,1.70
2023-09-24T06:23:52.718Z,2.40
2023-09-24T06:26:44.973Z,1.90
2023-09-24T06:29:38.344Z,1.50
2023-09-24T06:32:31.278Z,1.70
2023-09-24T06:35:23.829Z,1.50
2023-09-24T06:38:15.969Z,2.10
2023-09-24T06:41:03.464Z,1.30
2023-09-24T06:43:55.662Z,1.50
2023-09-24T06:46:47.875Z,1.90
2023-09-24T06:49:40.139Z,1.90
2023-09-24T06:52:33.829Z,2.20
2023-09-24T06:55:26.175Z,2.10
2023-09-24T06:58:18.520Z,1.70
2023-09-24T07:00:53.543Z,3.40
2023-09-24T07:03:43.077Z,2.00
2023-09-24T07:06:35.783Z,1.80
2023-09-24T07:09:10.761Z,2.70
2023-09-24T07:11:46.246Z,2.40
2023-09-24T07:14:38.521Z,2.40
2023-09-24T07:17:30.968Z,2.00
2023-09-24T07:20:23.293Z,1.80
2023-09-24T07:23:15.471Z,2.60
2023-09-24T07:25:58.783Z,3.80
2023-09-24T07:28:51.102Z,2.50
2023-09-24T07:31:44.702Z,1.90
2023-09-24T07:34:37.041Z,1.80
2023-09-24T07:37:18.763Z,2.20
2023-09-24T07:40:12.806Z,2.20
2023-09-24T07:43:05.106Z,2.30
2023-09-24T07:45:57.355Z,2.40
2023-09-24T07:48:50.569Z,2.40
2023-09-24T07:51:44.004Z,3.40
2023-09-24T07:54:36.221Z,2.10
2023-09-24T07:57:28.393Z,2.20
2023-09-24T08:00:21.462Z,1.90
2023-09-24T08:03:13.810Z,3.40
2023-09-24T08:06:07.096Z,3.70
2023-09-24T08:09:09.500Z,3.50
2023-09-24T08:12:10.465Z,2.30
2023-09-24T08:15:02.871Z,2.30
2023-09-24T08:17:55.341Z,2.90
2023-09-24T08:20:47.837Z,2.30
2023-09-24T08:23:40.192Z,3.20
2023-09-24T08:26:15.610Z,2.80
2023-09-24T08:28:47.835Z,2.50
2023-09-24T08:31:40.616Z,2.70
2023-09-24T08:34:32.884Z,2.40
2023-09-24T08:37:25.313Z,2.60
2023-09-24T08:40:18.065Z,2.40
2023-09-24T08:43:19.071Z,1.80
2023-09-24T08:45:51.390Z,2.40
2023-09-24T08:48:44.750Z,2.20
2023-09-24T08:51:38.303Z,2.10
2023-09-24T08:54:32.652Z,2.60
2023-09-24T08:57:25.061Z,2.10
2023-09-24T09:00:18.847Z,1.60
2023-09-24T09:03:11.372Z,1.70
2023-09-24T09:05:54.694Z,1.90
2023-09-24T09:08:57.567Z,2.10
2023-09-24T09:11:51.116Z,2.40
2023-09-24T09:14:44.366Z,2.40
2023-09-24T09:17:43.048Z,1.70
2023-09-24T09:20:48.569Z,1.50
2023-09-24T09:23:42.676Z,2.20
2023-09-24T09:26:37.960Z,1.70
2023-09-24T09:29:31.248Z,1.50
2023-09-24T09:32:27.082Z,5.30
2023-09-24T09:35:19.668Z,1.90
2023-09-24T09:38:15.425Z,2.20
2023-09-24T09:41:07.863Z,1.80
2023-09-24T09:44:06.685Z,2.30
2023-09-24T09:47:01.856Z,1.80
2023-09-24T09:50:00.764Z,1.50
2023-09-24T09:52:56.735Z,1.40
2023-09-24T09:55:51.802Z,2.00
2023-09-24T09:58:48.405Z,1.50
2023-09-24T10:01:40.729Z,1.40
2023-09-24T10:04:34.956Z,1.70
2023-09-24T10:07:29.023Z,1.40
2023-09-24T10:10:44.900Z,1.10
2023-09-24T10:13:50.719Z,2.00
2023-09-24T10:16:43.141Z,1.30
2023-09-24T10:19:51.060Z,1.40
2023-09-24T10:22:44.318Z,1.20
2023-09-24T10:25:38.859Z,1.40
2023-09-24T10:28:51.113Z,1.60
2023-09-24T10:32:15.869Z,1.20
2023-09-24T10:35:15.209Z,1.80
2023-09-24T10:38:07.923Z,1.40
2023-09-24T10:41:08.075Z,1.40
2023-09-24T10:43:40.145Z,1.40
2023-09-24T10:46:32.514Z,1.10
2023-09-24T10:49:26.545Z,1.10
2023-09-24T10:55:10.234Z,1.00
2023-09-24T10:58:04.308Z,1.10
2023-09-24T11:00:56.532Z,1.40
2023-09-24T11:03:49.506Z,1.20
2023-09-24T11:06:41.843Z,1.00
2023-09-24T11:09:34.337Z,1.10
2023-09-24T11:12:27.460Z,1.80
2023-09-24T11:15:21.854Z,1.20
2023-09-24T11:17:56.838Z,1.30
2023-09-24T11:20:55.753Z,1.60
2023-09-24T11:23:39.180Z,1.50
2023-09-24T11:26:34.671Z,1.10
2023-09-24T11:29:26.807Z,1.10
2023-09-24T11:32:29.384Z,1.30
2023-09-24T11:35:23.110Z,1.20
2023-09-24T11:38:15.960Z,1.20
2023-09-24T11:40:51.233Z,1.20
2023-09-24T11:43:44.256Z,1.00
2023-09-24T11:46:36.810Z,1.30
2023-09-24T11:49:29.048Z,1.20
2023-09-24T11:52:21.233Z,1.00
2023-09-24T11:55:13.813Z,0.80
2023-09-24T11:58:07.825Z,1.10
2023-09-24T12:01:03.032Z,1.30
2023-09-24T12:03:55.713Z,0.90
2023-09-24T12:06:31.085Z,1.20
2023-09-24T12:09:23.352Z,0.80
2023-09-24T12:12:16.135Z,1.10
2023-09-24T12:15:10.543Z,1.30
2023-09-24T12:18:05.715Z,1.10
2023-09-24T12:20:48.023Z,1.10
2023-09-24T12:23:40.870Z,1.00
2023-09-24T12:26:33.080Z,1.00
2023-09-24T12:29:25.288Z,0.70
2023-09-24T12:32:07.147Z,1.00
2023-09-24T12:34:59.429Z,1.20
2023-09-24T12:37:54.645Z,1.20
2023-09-24T12:40:47.625Z,1.00
2023-09-24T12:43:39.869Z,1.20
2023-09-24T12:46:32.322Z,1.30
2023-09-24T12:49:24.609Z,1.10
2023-09-24T12:52:16.944Z,1.00
2023-09-24T12:55:11.994Z,1.10
2023-09-24T12:58:04.329Z,0.90
2023-09-24T13:00:56.622Z,1.20
2023-09-24T13:03:49.181Z,1.10
2023-09-24T13:06:45.609Z,1.00
2023-09-24T13:09:38.187Z,0.80
2023-09-24T13:12:31.422Z,1.20
2023-09-24T13:15:25.117Z,1.00
2023-09-24T13:18:00.128Z,1.20
2023-09-24T13:20:52.414Z,1.00
2023-09-24T13:23:44.577Z,1.20
2023-09-24T13:26:37.411Z,1.10
2023-09-24T13:29:29.934Z,1.50
2023-09-24T13:32:22.960Z,1.60
2023-09-24T13:35:15.350Z,1.30
2023-09-24T13:38:07.801Z,1.00
2023-09-24T13:41:00.003Z,1.00
2023-09-24T13:43:52.205Z,1.10
2023-09-24T13:46:44.522Z,1.00
2023-09-24T13:49:39.534Z,1.00
2023-09-24T13:52:31.844Z,1.30
2023-09-24T13:55:24.066Z,1.30
2023-09-24T13:58:16.886Z,1.20
2023-09-24T14:01:01.977Z,1.30
2023-09-24T14:03:54.977Z,1.50
2023-09-24T14:06:48.821Z,0.70
2023-09-24T14:09:58.875Z,1.30
2023-09-24T14:12:59.560Z,0.90
2023-09-24T14:15:51.828Z,1.40
2023-09-24T14:18:44.201Z,1.30
2023-09-24T14:21:36.612Z,1.20
2023-09-24T14:24:28.843Z,1.00
2023-09-24T14:27:21.423Z,1.20
2023-09-24T14:30:15.586Z,1.10
2023-09-24T14:36:01.410Z,0.90
2023-09-24T14:38:54.100Z,1.50
2023-09-24T14:41:47.290Z,1.30
2023-09-24T14:44:47.782Z,3.30
2023-09-24T14:47:42.547Z,1.70
2023-09-24T14:50:39.929Z,1.90
2023-09-24T14:53:34.028Z,1.60
2023-09-24T14:56:26.694Z,1.80
2023-09-24T14:59:18.947Z,1.70
2023-09-24T15:02:11.204Z,1.70
2023-09-24T15:05:04.061Z,1.30
2023-09-24T15:07:39.727Z,4.50
2023-09-24T15:10:31.935Z,2.30
2023-09-24T15:13:24.816Z,3.30
2023-09-24T15:16:17.110Z,1.70
2023-09-24T15:19:09.447Z,1.50
2023-09-24T15:22:02.469Z,1.40
2023-09-24T15:24:54.710Z,1.30
2023-09-24T15:27:47.707Z,1.30
2023-09-24T15:30:42.213Z,1.40
2023-09-24T15:33:34.578Z,1.50
2023-09-24T15:36:27.069Z,1.70
2023-09-24T15:39:19.284Z,1.60
2023-09-24T15:42:01.800Z,1.50
2023-09-24T15:44:54.037Z,1.20
2023-09-24T15:47:46.346Z,1.20
2023-09-24T15:50:38.646Z,1.10
2023-09-24T15:53:30.879Z,0.90
2023-09-24T15:56:23.127Z,1.30
2023-09-24T15:59:15.895Z,1.20
2023-09-24T16:02:10.048Z,1.30
2023-09-24T16:07:52.994Z,1.10
2023-09-24T16:10:45.202Z,0.80
2023-09-24T16:13:39.267Z,1.20
2023-09-24T16:16:31.922Z,1.30
2023-09-24T16:19:24.297Z,1.50
2023-09-24T16:22:00.082Z,1.10
2023-09-24T16:24:54.593Z,1.40
2023-09-24T16:27:46.864Z,1.30
2023-09-24T16:30:42.429Z,1.00
2023-09-24T16:33:35.161Z,1.00
2023-09-24T16:36:27.631Z,1.30
2023-09-24T16:39:19.972Z,1.00
2023-09-24T16:42:12.283Z,1.10
2023-09-24T16:45:04.834Z,1.10
2023-09-24T16:47:57.335Z,1.40
2023-09-24T16:50:53.051Z,3.00
2023-09-24T16:53:45.492Z,1.50
2023-09-24T16:56:37.658Z,1.60
2023-09-24T16:59:30.702Z,1.40
2023-09-24T17:02:22.897Z,1.20
2023-09-24T17:05:15.574Z,1.20
2023-09-24T17:08:09.358Z,1.30
2023-09-24T17:11:01.580Z,1.50
2023-09-24T17:13:53.954Z,1.20
2023-09-24T17:16:46.650Z,2.20
2023-09-24T17:19:39.000Z,2.50
2023-09-24T17:22:31.195Z,2.40
2023-09-24T17:25:25.085Z,1.90
2023-09-24T17:28:17.299Z,1.80
2023-09-24T17:30:52.582Z,1.50
2023-09-24T17:33:46.555Z,1.20
2023-09-24T17:36:38.963Z,1.30
2023-09-24T17:39:32.696Z,3.90
2023-09-24T17:42:24.944Z,2.70
2023-09-24T17:45:17.835Z,2.30
2023-09-24T17:48:10.999Z,1.90
2023-09-24T17:51:07.104Z,1.70
2023-09-24T17:53:59.438Z,1.70
2023-09-24T17:56:51.877Z,1.40
2023-09-24T17:59:44.178Z,2.00
2023-09-24T18:02:38.323Z,2.10
2023-09-24T18:05:31.376Z,2.50
2023-09-24T18:08:14.761Z,2.30
2023-09-24T18:11:07.415Z,2.20
2023-09-24T18:13:59.745Z,2.00
2023-09-24T18:16:52.024Z,1.90
2023-09-24T18:19:44.299Z,2.10
2023-09-24T18:22:36.532Z,1.90
2023-09-24T18:25:28.911Z,2.40
2023-09-24T18:28:21.463Z,2.10
2023-09-24T18:31:14.388Z,2.80
2023-09-24T18:34:06.742Z,2.50
2023-09-24T18:36:58.901Z,1.70
2023-09-24T18:39:51.174Z,1.80
2023-09-24T18:42:45.307Z,1.90
2023-09-24T18:45:39.010Z,1.40
2023-09-24T18:48:26.450Z,2.40
2023-09-24T18:51:16.065Z,1.90
2023-09-24T18:53:48.715Z,1.50
2023-09-24T18:56:41.272Z,2.00
2023-09-24T18:59:33.471Z,1.90
2023-09-24T19:02:25.700Z,2.10
2023-09-24T19:05:18.530Z,2.30
2023-09-24T19:08:10.719Z,2.00
2023-09-24T19:11:02.974Z,2.00
2023-09-24T19:13:55.258Z,2.00
2023-09-24T19:16:47.560Z,2.20
2023-09-24T19:19:39.774Z,2.90
2023-09-24T19:22:32.574Z,2.40
2023-09-24T19:25:25.751Z,2.50
2023-09-24T19:28:17.988Z,2.00
2023-09-24T19:31:11.365Z,1.90
2023-09-24T19:34:03.683Z,1.50
2023-09-24T19:36:56.105Z,1.70
2023-09-24T19:39:48.370Z,1.60
2023-09-24T19:42:40.571Z,2.10
2023-09-24T19:45:32.900Z,3.90
2023-09-24T19:48:26.720Z,3.80
2023-09-24T19:51:19.155Z,2.70
2023-09-24T19:54:11.506Z,2.40
2023-09-24T19:57:03.728Z,2.60
2023-09-24T19:59:56.797Z,1.70
2023-09-24T20:02:49.054Z,2.30
2023-09-24T20:05:43.177Z,1.70
2023-09-24T20:08:42.672Z,1.90
2023-09-24T20:11:35.695Z,2.10
2023-09-24T20:14:29.720Z,3.10
2023-09-24T20:20:13.912Z,2.30
2023-09-24T20:23:06.974Z,2.20
2023-09-24T20:25:59.687Z,1.90
2023-09-24T20:28:52.903Z,2.80
2023-09-24T20:31:46.225Z,2.50
2023-09-24T20:34:39.118Z,2.40
2023-09-24T20:37:31.500Z,2.20
2023-09-24T20:40:23.766Z,2.30
2023-09-24T20:43:16.212Z,2.30
2023-09-24T20:46:00.452Z,2.40
2023-09-24T20:48:52.951Z,2.50
2023-09-24T20:51:45.435Z,2.50
2023-09-24T20:54:37.892Z,2.20
2023-09-24T20:57:30.271Z,2.20
2023-09-24T21:00:30.835Z,2.00
2023-09-24T21:03:23.252Z,1.80
2023-09-24T21:06:15.925Z,2.20
2023-09-24T21:08:50.352Z,1.70
2023-09-24T21:11:44.304Z,2.10
2023-09-24T21:14:36.564Z,2.00
2023-09-24T21:17:18.742Z,1.80
2023-09-24T21:20:13.201Z,1.60
2023-09-24T21:23:06.665Z,1.80
2023-09-24T21:26:05.239Z,2.00
2023-09-24T21:28:57.545Z,2.10
2023-09-24T21:31:49.806Z,1.80
2023-09-24T21:34:42.076Z,2.00
2023-09-24T21:37:34.536Z,2.40
2023-09-24T21:40:17.067Z,1.90
2023-09-24T21:43:10.151Z,2.00
2023-09-24T21:46:03.675Z,2.00
2023-09-24T21:48:56.264Z,2.10
2023-09-24T21:52:06.242Z,2.10
2023-09-24T21:54:58.349Z,2.10
2023-09-24T21:57:50.544Z,2.00
2023-09-24T22:00:43.515Z,2.30
2023-09-24T22:03:35.884Z,1.80
2023-09-24T22:06:29.765Z,1.90
2023-09-24T22:09:18.232Z,1.80
2023-09-24T22:12:10.632Z,1.80
2023-09-24T22:15:02.904Z,2.10
2023-09-24T22:17:55.202Z,2.20
2023-09-24T22:20:47.252Z,1.80
2023-09-24T22:23:39.514Z,2.20
2023-09-24T22:26:32.136Z,2.20
2023-09-24T22:29:24.140Z,3.10
2023-09-24T22:32:16.202Z,1.70
2023-09-24T22:35:12.058Z,1.80
2023-09-24T22:38:04.213Z,1.90
2023-09-24T22:40:45.107Z,1.70
2023-09-24T22:43:37.172Z,2.50
2023-09-24T22:46:29.195Z,2.30
2023-09-24T22:49:21.308Z,2.40
2023-09-24T22:52:14.168Z,2.10
2023-09-24T22:55:07.784Z,2.10
2023-09-24T22:57:45.674Z,1.90
2023-09-24T23:00:37.794Z,1.80
2023-09-24T23:03:20.389Z,1.90
2023-09-24T23:06:12.562Z,2.20
2023-09-24T23:09:04.741Z,2.20
2023-09-24T23:11:57.618Z,2.10
2023-09-24T23:14:50.369Z,2.50
2023-09-24T23:17:27.273Z,2.10
2023-09-24T23:20:19.657Z,2.30
2023-09-24T23:23:11.723Z,2.10
2023-09-24T23:26:05.530Z,2.20
2023-09-24T23:28:57.704Z,2.00
2023-09-24T23:31:51.695Z,2.10
2023-09-24T23:34:44.696Z,2.30
2023-09-24T23:37:36.814Z,2.40
2023-09-24T23:40:33.165Z,2.20
2023-09-24T23:43:25.255Z,2.50
2023-09-24T23:46:18.634Z,2.10
2023-09-24T23:49:11.094Z,2.30
2023-09-24T23:51:43.167Z,1.80
2023-09-24T23:54:36.077Z,2.10
2023-09-24T23:57:28.354Z,1.80
